sensor_id;sensor_type;location;lat;lon;timestamp;pressure;altitude;pressure_sealevel;temperature;humidity
55066;BME280;40964;42.114;24.220;2023-05-15T00:01:05;98073.91;;;11.81;100.00
55066;BME280;40964;42.114;24.220;2023-05-15T00:03:31;98067.41;;;11.83;100.00
55066;BME280;40964;42.114;24.220;2023-05-15T00:05:56;98063.91;;;11.89;100.00
55066;BME280;40964;42.114;24.220;2023-05-15T00:08:22;98063.47;;;11.92;100.00
55066;BME280;40964;42.114;24.220;2023-05-15T00:10:47;98059.44;;;11.90;100.00
55066;BME280;40964;42.114;24.220;2023-05-15T00:13:13;98061.84;;;11.91;100.00
55066;BME280;40964;42.114;24.220;2023-05-15T00:15:38;98050.56;;;11.84;100.00
55066;BME280;40964;42.114;24.220;2023-05-15T00:18:04;98037.31;;;11.91;100.00
55066;BME280;40964;42.114;24.220;2023-05-15T00:20:29;98034.03;;;11.96;100.00
55066;BME280;40964;42.114;24.220;2023-05-15T00:22:55;98043.41;;;11.91;100.00
55066;BME280;40964;42.114;24.220;2023-05-15T00:25:21;98036.06;;;11.93;100.00
55066;BME280;40964;42.114;24.220;2023-05-15T00:27:46;98031.25;;;11.90;100.00
55066;BME280;40964;42.114;24.220;2023-05-15T00:30:12;98028.03;;;11.88;100.00
55066;BME280;40964;42.114;24.220;2023-05-15T00:32:38;98017.84;;;11.92;100.00
55066;BME280;40964;42.114;24.220;2023-05-15T00:35:04;98024.16;;;11.91;100.00
55066;BME280;40964;42.114;24.220;2023-05-15T00:37:30;98021.06;;;11.94;100.00
55066;BME280;40964;42.114;24.220;2023-05-15T00:39:55;98009.06;;;11.98;100.00
55066;BME280;40964;42.114;24.220;2023-05-15T00:42:22;97997.72;;;11.98;100.00
55066;BME280;40964;42.114;24.220;2023-05-15T00:44:48;97985.69;;;12.02;100.00
55066;BME280;40964;42.114;24.220;2023-05-15T00:47:14;97978.97;;;12.06;100.00
55066;BME280;40964;42.114;24.220;2023-05-15T00:49:40;97967.63;;;12.05;100.00
55066;BME280;40964;42.114;24.220;2023-05-15T00:52:06;97974.28;;;12.08;100.00
55066;BME280;40964;42.114;24.220;2023-05-15T00:54:33;97968.78;;;12.09;100.00
55066;BME280;40964;42.114;24.220;2023-05-15T00:56:59;97942.50;;;12.03;100.00
55066;BME280;40964;42.114;24.220;2023-05-15T00:59:27;97949.97;;;12.06;100.00
55066;BME280;40964;42.114;24.220;2023-05-15T01:01:54;97923.25;;;12.02;100.00
55066;BME280;40964;42.114;24.220;2023-05-15T01:04:19;97934.00;;;12.01;100.00
55066;BME280;40964;42.114;24.220;2023-05-15T01:06:45;97923.13;;;11.97;100.00
55066;BME280;40964;42.114;24.220;2023-05-15T01:09:13;97917.91;;;11.90;100.00
55066;BME280;40964;42.114;24.220;2023-05-15T01:11:41;97913.91;;;11.88;100.00
55066;BME280;40964;42.114;24.220;2023-05-15T01:14:07;97913.91;;;11.88;100.00
55066;BME280;40964;42.114;24.220;2023-05-15T01:16:33;97915.59;;;11.82;100.00
55066;BME280;40964;42.114;24.220;2023-05-15T01:19:00;97923.03;;;11.85;100.00
55066;BME280;40964;42.114;24.220;2023-05-15T01:29:59;97931.16;;;11.84;100.00
55066;BME280;40964;42.114;24.220;2023-05-15T01:32:37;97920.56;;;11.90;100.00
55066;BME280;40964;42.114;24.220;2023-05-15T01:35:08;97918.06;;;11.96;100.00
55066;BME280;40964;42.114;24.220;2023-05-15T01:37:39;97920.03;;;12.00;100.00
55066;BME280;40964;42.114;24.220;2023-05-15T01:40:07;97921.22;;;12.04;100.00
55066;BME280;40964;42.114;24.220;2023-05-15T01:42:35;97909.97;;;12.09;100.00
55066;BME280;40964;42.114;24.220;2023-05-15T01:45:04;97922.22;;;12.03;100.00
55066;BME280;40964;42.114;24.220;2023-05-15T01:47:43;97933.28;;;11.93;100.00
55066;BME280;40964;42.114;24.220;2023-05-15T01:50:13;97934.19;;;11.87;100.00
55066;BME280;40964;42.114;24.220;2023-05-15T01:52:41;97943.00;;;11.75;100.00
55066;BME280;40964;42.114;24.220;2023-05-15T01:55:08;97937.09;;;11.61;100.00
55066;BME280;40964;42.114;24.220;2023-05-15T01:57:34;97938.69;;;11.62;100.00
55066;BME280;40964;42.114;24.220;2023-05-15T02:00:00;97921.13;;;11.56;100.00
55066;BME280;40964;42.114;24.220;2023-05-15T02:02:27;97907.38;;;11.35;100.00
55066;BME280;40964;42.114;24.220;2023-05-15T02:04:54;97937.06;;;11.43;100.00
55066;BME280;40964;42.114;24.220;2023-05-15T02:07:20;97937.59;;;11.33;100.00
55066;BME280;40964;42.114;24.220;2023-05-15T02:09:47;97953.22;;;11.28;100.00
55066;BME280;40964;42.114;24.220;2023-05-15T02:12:12;97953.13;;;11.16;100.00
55066;BME280;40964;42.114;24.220;2023-05-15T02:14:39;97954.16;;;11.15;100.00
55066;BME280;40964;42.114;24.220;2023-05-15T02:17:05;97963.03;;;11.14;100.00
55066;BME280;40964;42.114;24.220;2023-05-15T02:19:31;97948.97;;;11.02;100.00
55066;BME280;40964;42.114;24.220;2023-05-15T02:21:57;97944.47;;;11.09;100.00
55066;BME280;40964;42.114;24.220;2023-05-15T02:24:23;97930.13;;;11.05;100.00
55066;BME280;40964;42.114;24.220;2023-05-15T02:30:01;97914.13;;;11.06;100.00
55066;BME280;40964;42.114;24.220;2023-05-15T02:32:58;97913.25;;;11.13;100.00
55066;BME280;40964;42.114;24.220;2023-05-15T02:35:31;97908.72;;;11.20;100.00
55066;BME280;40964;42.114;24.220;2023-05-15T02:38:00;97907.06;;;11.25;100.00
55066;BME280;40964;42.114;24.220;2023-05-15T02:40:27;97897.28;;;11.32;100.00
55066;BME280;40964;42.114;24.220;2023-05-15T02:42:54;97884.69;;;11.34;100.00
55066;BME280;40964;42.114;24.220;2023-05-15T02:45:21;97898.28;;;11.50;100.00
55066;BME280;40964;42.114;24.220;2023-05-15T02:47:49;97906.34;;;11.55;100.00
55066;BME280;40964;42.114;24.220;2023-05-15T02:50:15;97905.78;;;11.53;100.00
55066;BME280;40964;42.114;24.220;2023-05-15T02:52:41;97901.25;;;11.60;100.00
55066;BME280;40964;42.114;24.220;2023-05-15T02:55:07;97897.69;;;11.66;100.00
55066;BME280;40964;42.114;24.220;2023-05-15T02:57:33;97906.00;;;11.70;100.00
55066;BME280;40964;42.114;24.220;2023-05-15T02:59:59;97896.09;;;11.65;100.00
55066;BME280;40964;42.114;24.220;2023-05-15T03:02:25;97912.28;;;11.69;100.00
55066;BME280;40964;42.114;24.220;2023-05-15T03:04:50;97906.19;;;11.68;100.00
55066;BME280;40964;42.114;24.220;2023-05-15T03:07:16;97922.22;;;11.48;100.00
55066;BME280;40964;42.114;24.220;2023-05-15T03:09:41;97928.22;;;11.37;100.00
55066;BME280;40964;42.114;24.220;2023-05-15T03:12:07;97912.47;;;11.30;100.00
55066;BME280;40964;42.114;24.220;2023-05-15T03:14:33;97905.47;;;11.24;100.00
55066;BME280;40964;42.114;24.220;2023-05-15T03:16:59;97909.94;;;11.24;100.00
55066;BME280;40964;42.114;24.220;2023-05-15T03:19:24;97912.38;;;11.19;100.00
55066;BME280;40964;42.114;24.220;2023-05-15T03:21:50;97908.78;;;11.13;100.00
55066;BME280;40964;42.114;24.220;2023-05-15T03:24:15;97912.16;;;11.20;100.00
55066;BME280;40964;42.114;24.220;2023-05-15T03:26:40;97918.09;;;11.16;100.00
55066;BME280;40964;42.114;24.220;2023-05-15T03:29:06;97915.81;;;11.19;100.00
55066;BME280;40964;42.114;24.220;2023-05-15T03:31:32;97893.75;;;11.20;100.00
55066;BME280;40964;42.114;24.220;2023-05-15T03:33:58;97900.03;;;11.37;100.00
55066;BME280;40964;42.114;24.220;2023-05-15T03:36:23;97901.44;;;11.40;100.00
55066;BME280;40964;42.114;24.220;2023-05-15T03:38:49;97902.84;;;11.43;100.00
55066;BME280;40964;42.114;24.220;2023-05-15T03:41:14;97908.00;;;11.49;100.00
55066;BME280;40964;42.114;24.220;2023-05-15T03:43:39;97912.34;;;11.44;100.00
55066;BME280;40964;42.114;24.220;2023-05-15T03:46:05;97914.59;;;11.40;100.00
55066;BME280;40964;42.114;24.220;2023-05-15T03:48:30;97923.75;;;11.37;100.00
55066;BME280;40964;42.114;24.220;2023-05-15T03:50:56;97922.13;;;11.36;100.00
55066;BME280;40964;42.114;24.220;2023-05-15T03:53:21;97882.97;;;11.22;100.00
55066;BME280;40964;42.114;24.220;2023-05-15T03:55:47;97909.66;;;11.50;100.00
55066;BME280;40964;42.114;24.220;2023-05-15T03:58:13;97909.13;;;11.60;100.00
55066;BME280;40964;42.114;24.220;2023-05-15T04:00:38;97900.22;;;11.61;100.00
55066;BME280;40964;42.114;24.220;2023-05-15T04:03:04;97901.13;;;11.66;100.00
55066;BME280;40964;42.114;24.220;2023-05-15T04:05:29;97898.66;;;11.72;100.00
55066;BME280;40964;42.114;24.220;2023-05-15T04:07:55;97892.72;;;11.76;100.00
55066;BME280;40964;42.114;24.220;2023-05-15T04:10:20;97895.75;;;11.80;100.00
55066;BME280;40964;42.114;24.220;2023-05-15T04:12:45;97905.03;;;11.82;100.00
55066;BME280;40964;42.114;24.220;2023-05-15T04:15:22;97907.53;;;11.77;100.00
55066;BME280;40964;42.114;24.220;2023-05-15T04:17:50;97902.03;;;11.79;100.00
55066;BME280;40964;42.114;24.220;2023-05-15T04:20:21;97903.78;;;11.85;100.00
55066;BME280;40964;42.114;24.220;2023-05-15T04:22:48;97910.00;;;11.90;100.00
55066;BME280;40964;42.114;24.220;2023-05-15T04:25:14;97900.34;;;11.84;100.00
55066;BME280;40964;42.114;24.220;2023-05-15T04:27:40;97906.22;;;11.86;100.00
55066;BME280;40964;42.114;24.220;2023-05-15T04:30:06;97910.31;;;11.82;100.00
55066;BME280;40964;42.114;24.220;2023-05-15T04:32:33;97907.44;;;11.84;100.00
55066;BME280;40964;42.114;24.220;2023-05-15T04:34:59;97900.19;;;11.79;100.00
55066;BME280;40964;42.114;24.220;2023-05-15T04:37:26;97909.66;;;11.87;100.00
55066;BME280;40964;42.114;24.220;2023-05-15T04:39:51;97914.25;;;11.91;100.00
55066;BME280;40964;42.114;24.220;2023-05-15T04:42:17;97920.78;;;11.89;100.00
55066;BME280;40964;42.114;24.220;2023-05-15T04:44:42;97924.34;;;11.94;100.00
55066;BME280;40964;42.114;24.220;2023-05-15T04:47:09;97922.50;;;11.95;100.00
55066;BME280;40964;42.114;24.220;2023-05-15T04:49:35;97927.78;;;11.95;100.00
55066;BME280;40964;42.114;24.220;2023-05-15T04:52:01;97939.44;;;12.06;100.00
55066;BME280;40964;42.114;24.220;2023-05-15T04:57:02;97901.88;;;11.92;100.00
55066;BME280;40964;42.114;24.220;2023-05-15T04:59:27;97927.59;;;11.97;100.00
55066;BME280;40964;42.114;24.220;2023-05-15T05:01:53;97923.91;;;11.98;100.00
55066;BME280;40964;42.114;24.220;2023-05-15T05:04:18;97915.28;;;11.90;100.00
55066;BME280;40964;42.114;24.220;2023-05-15T05:06:47;97931.16;;;11.84;100.00
55066;BME280;40964;42.114;24.220;2023-05-15T05:09:12;97938.84;;;11.85;100.00
55066;BME280;40964;42.114;24.220;2023-05-15T05:11:39;97935.69;;;11.77;100.00
55066;BME280;40964;42.114;24.220;2023-05-15T05:14:13;97932.03;;;11.78;100.00
55066;BME280;40964;42.114;24.220;2023-05-15T05:16:39;97929.50;;;11.89;100.00
55066;BME280;40964;42.114;24.220;2023-05-15T05:19:05;97939.59;;;11.92;100.00
55066;BME280;40964;42.114;24.220;2023-05-15T05:21:32;97933.00;;;11.83;100.00
55066;BME280;40964;42.114;24.220;2023-05-15T05:23:58;97936.09;;;11.80;100.00
55066;BME280;40964;42.114;24.220;2023-05-15T05:26:23;97946.63;;;11.80;100.00
55066;BME280;40964;42.114;24.220;2023-05-15T05:28:50;97943.53;;;11.83;100.00
55066;BME280;40964;42.114;24.220;2023-05-15T05:31:15;97930.94;;;11.85;100.00
55066;BME280;40964;42.114;24.220;2023-05-15T05:33:41;97930.59;;;11.82;100.00
55066;BME280;40964;42.114;24.220;2023-05-15T05:36:06;97924.00;;;11.91;100.00
55066;BME280;40964;42.114;24.220;2023-05-15T05:38:32;97924.69;;;11.86;100.00
55066;BME280;40964;42.114;24.220;2023-05-15T05:40:58;97921.59;;;11.89;100.00
55066;BME280;40964;42.114;24.220;2023-05-15T05:43:25;97906.31;;;11.80;100.00
55066;BME280;40964;42.114;24.220;2023-05-15T05:45:51;97922.75;;;11.93;100.00
55066;BME280;40964;42.114;24.220;2023-05-15T05:48:16;97913.69;;;11.89;100.00
55066;BME280;40964;42.114;24.220;2023-05-15T05:50:42;97921.63;;;12.01;100.00
55066;BME280;40964;42.114;24.220;2023-05-15T05:53:07;97925.56;;;12.10;100.00
55066;BME280;40964;42.114;24.220;2023-05-15T05:55:33;97920.69;;;12.14;100.00
55066;BME280;40964;42.114;24.220;2023-05-15T05:57:58;97919.03;;;12.13;100.00
55066;BME280;40964;42.114;24.220;2023-05-15T06:00:24;97929.88;;;12.23;100.00
55066;BME280;40964;42.114;24.220;2023-05-15T06:02:55;97925.50;;;12.17;100.00
55066;BME280;40964;42.114;24.220;2023-05-15T06:05:21;97939.25;;;12.19;100.00
55066;BME280;40964;42.114;24.220;2023-05-15T06:07:51;97928.63;;;12.26;100.00
55066;BME280;40964;42.114;24.220;2023-05-15T06:10:17;97907.75;;;12.24;100.00
55066;BME280;40964;42.114;24.220;2023-05-15T06:12:43;97914.09;;;12.35;100.00
55066;BME280;40964;42.114;24.220;2023-05-15T06:15:09;97920.84;;;12.31;100.00
55066;BME280;40964;42.114;24.220;2023-05-15T06:17:34;97927.75;;;12.32;100.00
55066;BME280;40964;42.114;24.220;2023-05-15T06:20:00;97928.16;;;12.29;100.00
55066;BME280;40964;42.114;24.220;2023-05-15T06:22:25;97931.75;;;12.34;100.00
55066;BME280;40964;42.114;24.220;2023-05-15T06:24:50;97930.00;;;12.28;100.00
55066;BME280;40964;42.114;24.220;2023-05-15T06:27:16;97928.66;;;12.37;100.00
55066;BME280;40964;42.114;24.220;2023-05-15T06:29:41;97916.53;;;12.48;100.00
55066;BME280;40964;42.114;24.220;2023-05-15T06:32:08;97908.31;;;12.56;100.00
55066;BME280;40964;42.114;24.220;2023-05-15T06:34:33;97909.00;;;12.63;100.00
55066;BME280;40964;42.114;24.220;2023-05-15T06:37:00;97908.34;;;12.68;100.00
55066;BME280;40964;42.114;24.220;2023-05-15T06:39:25;97913.63;;;12.79;100.00
55066;BME280;40964;42.114;24.220;2023-05-15T06:41:50;97917.22;;;12.85;100.00
55066;BME280;40964;42.114;24.220;2023-05-15T06:44:22;97916.03;;;12.93;100.00
55066;BME280;40964;42.114;24.220;2023-05-15T06:46:47;97914.34;;;12.98;100.00
55066;BME280;40964;42.114;24.220;2023-05-15T06:49:13;97911.59;;;13.05;100.00
55066;BME280;40964;42.114;24.220;2023-05-15T06:51:38;97913.31;;;13.11;100.00
55066;BME280;40964;42.114;24.220;2023-05-15T06:54:04;97924.56;;;13.18;100.00
55066;BME280;40964;42.114;24.220;2023-05-15T06:56:29;97929.38;;;12.98;100.00
55066;BME280;40964;42.114;24.220;2023-05-15T06:58:55;97924.34;;;13.08;100.00
55066;BME280;40964;42.114;24.220;2023-05-15T07:01:20;97917.59;;;13.24;100.00
55066;BME280;40964;42.114;24.220;2023-05-15T07:03:46;97916.44;;;13.43;100.00
55066;BME280;40964;42.114;24.220;2023-05-15T07:06:11;97907.31;;;13.62;100.00
55066;BME280;40964;42.114;24.220;2023-05-15T07:08:37;97904.88;;;13.84;100.00
55066;BME280;40964;42.114;24.220;2023-05-15T07:11:05;97906.06;;;13.65;100.00
55066;BME280;40964;42.114;24.220;2023-05-15T07:13:30;97900.53;;;13.78;100.00
55066;BME280;40964;42.114;24.220;2023-05-15T07:15:56;97906.03;;;13.77;100.00
55066;BME280;40964;42.114;24.220;2023-05-15T07:18:21;97905.31;;;13.93;100.00
55066;BME280;40964;42.114;24.220;2023-05-15T07:20:46;97902.13;;;14.08;100.00
55066;BME280;40964;42.114;24.220;2023-05-15T07:23:12;97898.13;;;14.05;100.00
55066;BME280;40964;42.114;24.220;2023-05-15T07:25:37;97901.34;;;14.07;100.00
55066;BME280;40964;42.114;24.220;2023-05-15T07:28:03;97910.59;;;13.93;100.00
55066;BME280;40964;42.114;24.220;2023-05-15T07:30:28;97908.53;;;13.95;100.00
55066;BME280;40964;42.114;24.220;2023-05-15T07:32:54;97904.97;;;13.89;100.00
55066;BME280;40964;42.114;24.220;2023-05-15T07:35:20;97912.53;;;13.98;100.00
55066;BME280;40964;42.114;24.220;2023-05-15T07:37:45;97908.72;;;14.05;100.00
55066;BME280;40964;42.114;24.220;2023-05-15T07:40:11;97913.94;;;14.17;100.00
55066;BME280;40964;42.114;24.220;2023-05-15T07:42:36;97911.78;;;14.14;100.00
55066;BME280;40964;42.114;24.220;2023-05-15T07:45:05;97920.16;;;14.23;100.00
55066;BME280;40964;42.114;24.220;2023-05-15T07:47:31;97922.97;;;14.33;100.00
55066;BME280;40964;42.114;24.220;2023-05-15T07:49:56;97922.34;;;14.42;100.00
55066;BME280;40964;42.114;24.220;2023-05-15T07:52:21;97920.72;;;14.53;100.00
55066;BME280;40964;42.114;24.220;2023-05-15T07:57:22;97918.19;;;14.75;100.00
55066;BME280;40964;42.114;24.220;2023-05-15T07:59:49;97925.09;;;14.76;100.00
55066;BME280;40964;42.114;24.220;2023-05-15T08:02:15;97925.72;;;14.66;98.30
55066;BME280;40964;42.114;24.220;2023-05-15T08:04:40;97929.97;;;14.67;99.25
55066;BME280;40964;42.114;24.220;2023-05-15T08:07:05;97927.88;;;14.41;97.66
55066;BME280;40964;42.114;24.220;2023-05-15T08:09:31;97922.69;;;14.46;99.52
55066;BME280;40964;42.114;24.220;2023-05-15T08:12:14;97930.84;;;14.56;98.51
55066;BME280;40964;42.114;24.220;2023-05-15T08:14:41;97917.50;;;14.51;100.00
55066;BME280;40964;42.114;24.220;2023-05-15T08:17:07;97924.81;;;14.61;99.65
55066;BME280;40964;42.114;24.220;2023-05-15T08:19:32;97916.59;;;14.45;98.39
55066;BME280;40964;42.114;24.220;2023-05-15T08:21:58;97928.91;;;14.52;98.68
55066;BME280;40964;42.114;24.220;2023-05-15T08:24:23;97926.16;;;14.46;97.86
55066;BME280;40964;42.114;24.220;2023-05-15T08:26:49;97920.09;;;14.34;99.16
55066;BME280;40964;42.114;24.220;2023-05-15T08:29:14;97920.31;;;14.33;99.53
55066;BME280;40964;42.114;24.220;2023-05-15T08:31:41;97918.00;;;14.36;100.00
55066;BME280;40964;42.114;24.220;2023-05-15T08:34:06;97913.00;;;14.23;99.81
55066;BME280;40964;42.114;24.220;2023-05-15T08:36:31;97905.06;;;14.23;100.00
55066;BME280;40964;42.114;24.220;2023-05-15T08:38:57;97915.97;;;14.27;100.00
55066;BME280;40964;42.114;24.220;2023-05-15T08:41:41;97905.34;;;14.10;100.00
55066;BME280;40964;42.114;24.220;2023-05-15T08:44:09;97904.22;;;14.06;99.88
55066;BME280;40964;42.114;24.220;2023-05-15T08:46:35;97892.31;;;13.91;100.00
55066;BME280;40964;42.114;24.220;2023-05-15T08:49:09;97895.50;;;14.05;99.73
55066;BME280;40964;42.114;24.220;2023-05-15T08:51:35;97891.00;;;14.06;99.93
55066;BME280;40964;42.114;24.220;2023-05-15T08:54:02;97908.41;;;14.18;100.00
55066;BME280;40964;42.114;24.220;2023-05-15T08:56:28;97905.50;;;14.32;100.00
55066;BME280;40964;42.114;24.220;2023-05-15T08:58:53;97884.66;;;14.35;100.00
55066;BME280;40964;42.114;24.220;2023-05-15T09:01:21;97893.28;;;14.14;100.00
55066;BME280;40964;42.114;24.220;2023-05-15T09:03:47;97864.50;;;14.17;100.00
55066;BME280;40964;42.114;24.220;2023-05-15T09:06:12;97893.63;;;14.34;100.00
55066;BME280;40964;42.114;24.220;2023-05-15T09:08:38;97898.44;;;14.37;100.00
55066;BME280;40964;42.114;24.220;2023-05-15T09:11:05;97889.56;;;14.43;98.65
55066;BME280;40964;42.114;24.220;2023-05-15T09:13:32;97890.03;;;14.40;98.37
55066;BME280;40964;42.114;24.220;2023-05-15T09:15:57;97892.56;;;14.47;98.09
55066;BME280;40964;42.114;24.220;2023-05-15T09:18:24;97886.88;;;14.55;100.00
55066;BME280;40964;42.114;24.220;2023-05-15T09:20:49;97886.09;;;14.43;100.00
55066;BME280;40964;42.114;24.220;2023-05-15T09:23:26;97892.50;;;14.30;96.73
55066;BME280;40964;42.114;24.220;2023-05-15T09:25:52;97887.53;;;14.34;97.97
55066;BME280;40964;42.114;24.220;2023-05-15T09:28:38;97876.63;;;14.30;99.07
55066;BME280;40964;42.114;24.220;2023-05-15T09:31:04;97881.16;;;14.18;98.16
55066;BME280;40964;42.114;24.220;2023-05-15T09:33:35;97880.59;;;14.16;98.22
55066;BME280;40964;42.114;24.220;2023-05-15T09:36:02;97873.03;;;14.08;98.41
55066;BME280;40964;42.114;24.220;2023-05-15T09:38:27;97883.00;;;14.17;97.65
55066;BME280;40964;42.114;24.220;2023-05-15T09:41:05;97879.97;;;14.26;98.81
55066;BME280;40964;42.114;24.220;2023-05-15T09:43:36;97878.56;;;14.35;99.92
55066;BME280;40964;42.114;24.220;2023-05-15T09:46:01;97874.44;;;14.27;99.05
55066;BME280;40964;42.114;24.220;2023-05-15T09:48:28;97852.44;;;14.10;97.28
55066;BME280;40964;42.114;24.220;2023-05-15T09:50:54;97868.59;;;14.25;96.65
55066;BME280;40964;42.114;24.220;2023-05-15T09:53:21;97862.00;;;14.11;96.27
55066;BME280;40964;42.114;24.220;2023-05-15T09:55:47;97859.56;;;14.21;97.88
55066;BME280;40964;42.114;24.220;2023-05-15T09:58:14;97867.97;;;14.35;95.73
55066;BME280;40964;42.114;24.220;2023-05-15T10:00:41;97874.97;;;14.41;95.17
55066;BME280;40964;42.114;24.220;2023-05-15T10:03:09;97870.19;;;14.55;97.27
55066;BME280;40964;42.114;24.220;2023-05-15T10:05:35;97854.47;;;14.48;94.79
55066;BME280;40964;42.114;24.220;2023-05-15T10:08:02;97829.75;;;14.42;94.01
55066;BME280;40964;42.114;24.220;2023-05-15T10:10:28;97841.31;;;14.53;96.01
55066;BME280;40964;42.114;24.220;2023-05-15T10:12:56;97835.47;;;14.51;95.20
55066;BME280;40964;42.114;24.220;2023-05-15T10:15:27;97833.47;;;14.58;94.66
55066;BME280;40964;42.114;24.220;2023-05-15T10:17:53;97837.16;;;14.74;94.56
55066;BME280;40964;42.114;24.220;2023-05-15T10:20:21;97842.66;;;14.89;91.41
55066;BME280;40964;42.114;24.220;2023-05-15T10:22:49;97820.69;;;14.89;92.00
55066;BME280;40964;42.114;24.220;2023-05-15T10:26:01;97827.16;;;14.98;93.25
55066;BME280;40964;42.114;24.220;2023-05-15T10:28:10;97833.91;;;14.89;92.51
55066;BME280;40964;42.114;24.220;2023-05-15T10:30:37;97829.38;;;14.84;92.44
55066;BME280;40964;42.114;24.220;2023-05-15T10:33:04;97831.22;;;14.84;94.20
55066;BME280;40964;42.114;24.220;2023-05-15T10:35:29;97829.25;;;14.96;96.95
55066;BME280;40964;42.114;24.220;2023-05-15T10:37:56;97809.00;;;15.07;95.51
55066;BME280;40964;42.114;24.220;2023-05-15T10:40:22;97811.75;;;15.12;94.31
55066;BME280;40964;42.114;24.220;2023-05-15T10:42:48;97818.84;;;15.28;93.67
55066;BME280;40964;42.114;24.220;2023-05-15T10:45:13;97819.53;;;15.40;90.84
55066;BME280;40964;42.114;24.220;2023-05-15T10:47:41;97819.78;;;15.39;91.10
55066;BME280;40964;42.114;24.220;2023-05-15T10:50:07;97826.00;;;15.49;93.89
55066;BME280;40964;42.114;24.220;2023-05-15T10:52:35;97808.53;;;15.53;92.65
55066;BME280;40964;42.114;24.220;2023-05-15T10:57:36;97799.91;;;15.63;92.73
55066;BME280;40964;42.114;24.220;2023-05-15T11:00:02;97799.41;;;15.88;92.37
55066;BME280;40964;42.114;24.220;2023-05-15T11:02:29;97799.56;;;16.03;91.81
55066;BME280;40964;42.114;24.220;2023-05-15T11:04:58;97802.34;;;16.18;89.18
55066;BME280;40964;42.114;24.220;2023-05-15T11:07:24;97803.91;;;16.14;89.92
55066;BME280;40964;42.114;24.220;2023-05-15T11:09:51;97803.72;;;16.26;88.73
55066;BME280;40964;42.114;24.220;2023-05-15T11:12:17;97798.94;;;16.23;89.23
55066;BME280;40964;42.114;24.220;2023-05-15T11:15:16;97796.47;;;16.16;86.76
55066;BME280;40964;42.114;24.220;2023-05-15T11:17:31;97801.22;;;16.09;89.13
55066;BME280;40964;42.114;24.220;2023-05-15T11:19:58;97802.03;;;16.15;87.64
55066;BME280;40964;42.114;24.220;2023-05-15T11:22:33;97806.34;;;16.21;87.70
55066;BME280;40964;42.114;24.220;2023-05-15T11:25:04;97802.84;;;16.15;87.99
55066;BME280;40964;42.114;24.220;2023-05-15T11:27:43;97813.41;;;16.37;87.79
55066;BME280;40964;42.114;24.220;2023-05-15T11:30:19;97813.72;;;16.46;85.25
55066;BME280;40964;42.114;24.220;2023-05-15T11:35:16;97811.81;;;16.41;86.60
55066;BME280;40964;42.114;24.220;2023-05-15T11:37:45;97809.25;;;16.52;83.36
55066;BME280;40964;42.114;24.220;2023-05-15T11:40:22;97810.63;;;16.59;85.37
55066;BME280;40964;42.114;24.220;2023-05-15T11:43:02;97822.53;;;16.84;82.20
55066;BME280;40964;42.114;24.220;2023-05-15T11:45:36;97823.59;;;16.88;84.03
55066;BME280;40964;42.114;24.220;2023-05-15T11:48:04;97812.72;;;16.89;82.66
55066;BME280;40964;42.114;24.220;2023-05-15T11:50:31;97807.50;;;16.99;82.56
55066;BME280;40964;42.114;24.220;2023-05-15T11:53:01;97810.69;;;17.07;79.16
55066;BME280;40964;42.114;24.220;2023-05-15T11:55:27;97796.06;;;17.04;79.24
55066;BME280;40964;42.114;24.220;2023-05-15T11:57:53;97804.19;;;16.82;80.63
55066;BME280;40964;42.114;24.220;2023-05-15T12:00:20;97805.25;;;16.81;83.23
55066;BME280;40964;42.114;24.220;2023-05-15T12:02:46;97808.28;;;16.63;83.20
55066;BME280;40964;42.114;24.220;2023-05-15T12:05:11;97805.66;;;16.68;84.90
55066;BME280;40964;42.114;24.220;2023-05-15T12:07:38;97810.53;;;16.76;83.69
55066;BME280;40964;42.114;24.220;2023-05-15T12:10:05;97823.81;;;16.76;81.89
55066;BME280;40964;42.114;24.220;2023-05-15T12:12:31;97830.22;;;16.85;81.95
55066;BME280;40964;42.114;24.220;2023-05-15T12:14:57;97829.72;;;16.88;83.52
55066;BME280;40964;42.114;24.220;2023-05-15T12:17:23;97821.91;;;17.14;79.52
55066;BME280;40964;42.114;24.220;2023-05-15T12:19:50;97821.47;;;17.32;79.67
55066;BME280;40964;42.114;24.220;2023-05-15T12:22:16;97812.19;;;17.40;76.74
55066;BME280;40964;42.114;24.220;2023-05-15T12:24:43;97806.00;;;17.19;78.52
55066;BME280;40964;42.114;24.220;2023-05-15T12:27:10;97819.34;;;17.34;78.11
55066;BME280;40964;42.114;24.220;2023-05-15T12:29:37;97802.44;;;17.55;79.08
55066;BME280;40964;42.114;24.220;2023-05-15T12:32:03;97792.34;;;17.63;78.26
55066;BME280;40964;42.114;24.220;2023-05-15T12:34:29;97791.78;;;17.55;78.84
55066;BME280;40964;42.114;24.220;2023-05-15T12:36:55;97794.13;;;17.42;76.44
55066;BME280;40964;42.114;24.220;2023-05-15T12:39:24;97794.63;;;17.34;78.34
55066;BME280;40964;42.114;24.220;2023-05-15T12:41:49;97795.63;;;17.17;79.82
55066;BME280;40964;42.114;24.220;2023-05-15T12:44:19;97803.59;;;17.17;80.95
55066;BME280;40964;42.114;24.220;2023-05-15T12:46:45;97807.00;;;17.13;81.99
55066;BME280;40964;42.114;24.220;2023-05-15T12:49:11;97799.03;;;17.08;83.27
55066;BME280;40964;42.114;24.220;2023-05-15T12:51:43;97791.47;;;16.89;81.75
55066;BME280;40964;42.114;24.220;2023-05-15T12:54:19;97788.78;;;16.84;83.46
55066;BME280;40964;42.114;24.220;2023-05-15T12:56:46;97793.25;;;16.73;83.87
55066;BME280;40964;42.114;24.220;2023-05-15T12:59:12;97799.22;;;16.59;84.04
55066;BME280;40964;42.114;24.220;2023-05-15T13:01:39;97790.66;;;16.52;86.62
55066;BME280;40964;42.114;24.220;2023-05-15T13:04:06;97793.84;;;16.49;85.24